アイウン の空港の天気 - METARとTAF

アイウン/ハッサン空港 ( GMML / EUN ) - 西サハラ アイウン
飛行場実況気象(Metar)
観測時間01/21 18:00 WET (01/21 18:00 UTC)
風向・風速東北東 6m/s
視程10km以上
天気現象
なし
気温24℃
湿度36%
気圧1025hPa
METARGMML 211800Z 06012KT CAVOK 24/08 Q1025 NOSIG
過去の天気等 Google飛行場航空写真 Wunderground天気予報

過去48時間のMETAR

飛行場予報(TAF)
発表時間: 1/21 17:00 WET (1/21 17:00 UTC)
予報対象時間: 21日18時 WET ~ 23日0時 WET
風向・風速東南東 5m/s
視程8,000m
なし
TAF GMML 211700Z 2118/2224 11010KT 8000 NSC